sensor_id;sensor_type;location;lat;lon;timestamp;P1;durP1;ratioP1;P2;durP2;ratioP2
35757;SDS011;21879;50.110;18.900;2023-07-09T00:09:40;12.90;;;11.60;;
35757;SDS011;21879;50.110;18.900;2023-07-09T00:20:10;10.10;;;8.80;;
35757;SDS011;21879;50.110;18.900;2023-07-09T00:30:41;10.50;;;9.10;;
35757;SDS011;21879;50.110;18.900;2023-07-09T00:41:12;14.90;;;10.40;;
35757;SDS011;21879;50.110;18.900;2023-07-09T00:51:43;11.70;;;9.90;;
35757;SDS011;21879;50.110;18.900;2023-07-09T01:02:12;9.40;;;6.90;;
35757;SDS011;21879;50.110;18.900;2023-07-09T01:12:40;11.70;;;9.00;;
35757;SDS011;21879;50.110;18.900;2023-07-09T01:23:08;10.00;;;8.30;;
35757;SDS011;21879;50.110;18.900;2023-07-09T01:33:36;9.70;;;7.80;;
35757;SDS011;21879;50.110;18.900;2023-07-09T01:44:04;10.20;;;9.20;;
35757;SDS011;21879;50.110;18.900;2023-07-09T01:54:32;10.50;;;9.20;;
35757;SDS011;21879;50.110;18.900;2023-07-09T02:05:03;12.20;;;10.00;;
35757;SDS011;21879;50.110;18.900;2023-07-09T02:15:31;10.90;;;9.10;;
35757;SDS011;21879;50.110;18.900;2023-07-09T02:26:00;10.50;;;9.40;;
35757;SDS011;21879;50.110;18.900;2023-07-09T02:36:29;13.00;;;10.60;;
35757;SDS011;21879;50.110;18.900;2023-07-09T02:46:57;12.20;;;9.80;;
35757;SDS011;21879;50.110;18.900;2023-07-09T02:57:25;10.00;;;7.90;;
35757;SDS011;21879;50.110;18.900;2023-07-09T03:07:53;12.20;;;9.90;;
35757;SDS011;21879;50.110;18.900;2023-07-09T03:18:21;14.40;;;10.80;;
35757;SDS011;21879;50.110;18.900;2023-07-09T03:28:49;18.40;;;13.90;;
35757;SDS011;21879;50.110;18.900;2023-07-09T03:39:18;11.60;;;10.30;;
35757;SDS011;21879;50.110;18.900;2023-07-09T03:49:46;13.40;;;10.10;;
35757;SDS011;21879;50.110;18.900;2023-07-09T04:00:15;9.80;;;8.80;;
35757;SDS011;21879;50.110;18.900;2023-07-09T04:10:43;10.40;;;8.80;;
35757;SDS011;21879;50.110;18.900;2023-07-09T04:21:11;11.60;;;10.40;;
35757;SDS011;21879;50.110;18.900;2023-07-09T04:31:39;13.30;;;11.20;;
35757;SDS011;21879;50.110;18.900;2023-07-09T04:42:08;16.20;;;13.00;;
35757;SDS011;21879;50.110;18.900;2023-07-09T04:52:39;18.30;;;15.60;;
35757;SDS011;21879;50.110;18.900;2023-07-09T05:03:07;13.10;;;11.70;;
35757;SDS011;21879;50.110;18.900;2023-07-09T05:13:35;14.30;;;12.80;;
35757;SDS011;21879;50.110;18.900;2023-07-09T05:24:04;13.90;;;12.40;;
35757;SDS011;21879;50.110;18.900;2023-07-09T05:34:32;14.10;;;12.60;;
35757;SDS011;21879;50.110;18.900;2023-07-09T05:45:01;12.90;;;11.50;;
35757;SDS011;21879;50.110;18.900;2023-07-09T05:55:29;12.70;;;11.00;;
35757;SDS011;21879;50.110;18.900;2023-07-09T06:05:57;10.40;;;9.30;;
35757;SDS011;21879;50.110;18.900;2023-07-09T06:16:27;11.10;;;9.20;;
35757;SDS011;21879;50.110;18.900;2023-07-09T06:26:55;12.00;;;8.90;;
35757;SDS011;21879;50.110;18.900;2023-07-09T06:37:24;9.30;;;8.10;;
35757;SDS011;21879;50.110;18.900;2023-07-09T06:47:52;9.80;;;8.20;;
35757;SDS011;21879;50.110;18.900;2023-07-09T06:58:20;8.20;;;7.40;;
35757;SDS011;21879;50.110;18.900;2023-07-09T07:08:51;8.00;;;6.60;;
35757;SDS011;21879;50.110;18.900;2023-07-09T07:19:19;8.60;;;6.10;;
35757;SDS011;21879;50.110;18.900;2023-07-09T07:29:47;8.40;;;6.80;;
35757;SDS011;21879;50.110;18.900;2023-07-09T07:40:16;7.40;;;6.60;;
35757;SDS011;21879;50.110;18.900;2023-07-09T07:50:44;7.60;;;6.30;;
35757;SDS011;21879;50.110;18.900;2023-07-09T08:01:12;8.60;;;7.10;;
35757;SDS011;21879;50.110;18.900;2023-07-09T08:11:40;8.00;;;6.10;;
35757;SDS011;21879;50.110;18.900;2023-07-09T08:32:56;6.80;;;5.50;;
35757;SDS011;21879;50.110;18.900;2023-07-09T08:43:28;5.20;;;4.20;;
35757;SDS011;21879;50.110;18.900;2023-07-09T08:54:01;5.10;;;4.60;;
35757;SDS011;21879;50.110;18.900;2023-07-09T09:04:29;6.30;;;4.10;;
35757;SDS011;21879;50.110;18.900;2023-07-09T09:15:02;5.20;;;4.70;;
35757;SDS011;21879;50.110;18.900;2023-07-09T09:25:37;4.80;;;4.30;;
35757;SDS011;21879;50.110;18.900;2023-07-09T09:36:12;6.80;;;4.70;;
35757;SDS011;21879;50.110;18.900;2023-07-09T09:57:17;5.30;;;4.80;;
35757;SDS011;21879;50.110;18.900;2023-07-09T10:07:47;6.20;;;5.20;;
35757;SDS011;21879;50.110;18.900;2023-07-09T10:18:27;6.70;;;4.90;;
35757;SDS011;21879;50.110;18.900;2023-07-09T10:29:08;4.90;;;4.40;;
35757;SDS011;21879;50.110;18.900;2023-07-09T10:39:59;6.30;;;5.00;;
35757;SDS011;21879;50.110;18.900;2023-07-09T10:50:31;4.60;;;4.00;;
35757;SDS011;21879;50.110;18.900;2023-07-09T11:01:02;5.40;;;4.60;;
35757;SDS011;21879;50.110;18.900;2023-07-09T11:11:32;6.50;;;5.10;;
35757;SDS011;21879;50.110;18.900;2023-07-09T11:22:04;7.00;;;4.40;;
35757;SDS011;21879;50.110;18.900;2023-07-09T11:32:46;5.30;;;4.70;;
35757;SDS011;21879;50.110;18.900;2023-07-09T11:43:28;5.60;;;5.00;;
35757;SDS011;21879;50.110;18.900;2023-07-09T11:53:57;5.20;;;4.70;;
35757;SDS011;21879;50.110;18.900;2023-07-09T12:04:27;5.10;;;4.60;;
35757;SDS011;21879;50.110;18.900;2023-07-09T12:15:00;7.30;;;5.50;;
35757;SDS011;21879;50.110;18.900;2023-07-09T12:25:46;5.70;;;5.20;;
35757;SDS011;21879;50.110;18.900;2023-07-09T12:36:16;5.40;;;4.90;;
35757;SDS011;21879;50.110;18.900;2023-07-09T12:46:45;8.30;;;4.60;;
35757;SDS011;21879;50.110;18.900;2023-07-09T12:57:15;5.70;;;5.00;;
35757;SDS011;21879;50.110;18.900;2023-07-09T13:07:45;5.70;;;5.20;;
35757;SDS011;21879;50.110;18.900;2023-07-09T13:18:15;6.60;;;5.80;;
35757;SDS011;21879;50.110;18.900;2023-07-09T13:28:43;5.80;;;5.00;;
35757;SDS011;21879;50.110;18.900;2023-07-09T13:39:11;5.00;;;4.50;;
35757;SDS011;21879;50.110;18.900;2023-07-09T13:49:39;5.80;;;5.00;;
35757;SDS011;21879;50.110;18.900;2023-07-09T14:00:09;6.30;;;5.70;;
35757;SDS011;21879;50.110;18.900;2023-07-09T14:10:37;5.30;;;4.80;;
35757;SDS011;21879;50.110;18.900;2023-07-09T14:21:08;5.60;;;4.60;;
35757;SDS011;21879;50.110;18.900;2023-07-09T14:31:39;6.00;;;5.40;;
35757;SDS011;21879;50.110;18.900;2023-07-09T14:42:10;5.90;;;5.10;;
35757;SDS011;21879;50.110;18.900;2023-07-09T14:52:41;7.20;;;4.90;;
35757;SDS011;21879;50.110;18.900;2023-07-09T15:03:11;7.60;;;5.30;;
35757;SDS011;21879;50.110;18.900;2023-07-09T15:13:43;5.20;;;4.60;;
35757;SDS011;21879;50.110;18.900;2023-07-09T15:35:31;6.40;;;4.70;;
35757;SDS011;21879;50.110;18.900;2023-07-09T15:46:00;5.00;;;4.50;;
35757;SDS011;21879;50.110;18.900;2023-07-09T15:56:29;5.50;;;4.00;;
35757;SDS011;21879;50.110;18.900;2023-07-09T16:06:59;6.20;;;4.90;;
35757;SDS011;21879;50.110;18.900;2023-07-09T16:28:30;5.40;;;4.30;;
35757;SDS011;21879;50.110;18.900;2023-07-09T16:39:26;4.10;;;3.80;;
35757;SDS011;21879;50.110;18.900;2023-07-09T16:50:14;7.30;;;5.00;;
35757;SDS011;21879;50.110;18.900;2023-07-09T17:11:40;5.10;;;4.60;;
35757;SDS011;21879;50.110;18.900;2023-07-09T17:22:17;6.20;;;4.80;;
35757;SDS011;21879;50.110;18.900;2023-07-09T17:32:49;4.90;;;4.30;;
35757;SDS011;21879;50.110;18.900;2023-07-09T17:44:01;7.90;;;6.30;;
35757;SDS011;21879;50.110;18.900;2023-07-09T17:54:30;8.20;;;5.20;;
35757;SDS011;21879;50.110;18.900;2023-07-09T18:04:58;6.20;;;5.30;;
35757;SDS011;21879;50.110;18.900;2023-07-09T18:15:43;6.30;;;5.00;;
35757;SDS011;21879;50.110;18.900;2023-07-09T18:26:12;5.30;;;4.30;;
35757;SDS011;21879;50.110;18.900;2023-07-09T18:36:40;5.70;;;4.70;;
35757;SDS011;21879;50.110;18.900;2023-07-09T18:47:10;6.30;;;4.80;;
35757;SDS011;21879;50.110;18.900;2023-07-09T18:57:39;6.90;;;5.00;;
35757;SDS011;21879;50.110;18.900;2023-07-09T19:08:15;5.30;;;4.80;;
35757;SDS011;21879;50.110;18.900;2023-07-09T19:18:45;6.30;;;5.30;;
35757;SDS011;21879;50.110;18.900;2023-07-09T19:29:13;6.80;;;5.60;;
35757;SDS011;21879;50.110;18.900;2023-07-09T19:39:42;7.60;;;5.80;;
35757;SDS011;21879;50.110;18.900;2023-07-09T19:50:20;8.10;;;6.20;;
35757;SDS011;21879;50.110;18.900;2023-07-09T20:00:50;8.30;;;6.20;;
35757;SDS011;21879;50.110;18.900;2023-07-09T20:11:22;8.80;;;7.10;;
35757;SDS011;21879;50.110;18.900;2023-07-09T20:21:50;8.80;;;7.40;;
35757;SDS011;21879;50.110;18.900;2023-07-09T20:32:19;7.50;;;6.70;;
35757;SDS011;21879;50.110;18.900;2023-07-09T20:42:48;10.00;;;8.90;;
35757;SDS011;21879;50.110;18.900;2023-07-09T20:53:20;10.10;;;8.40;;
35757;SDS011;21879;50.110;18.900;2023-07-09T21:03:49;10.80;;;8.00;;
35757;SDS011;21879;50.110;18.900;2023-07-09T21:14:17;8.90;;;7.50;;
35757;SDS011;21879;50.110;18.900;2023-07-09T21:24:47;8.60;;;7.30;;
35757;SDS011;21879;50.110;18.900;2023-07-09T21:35:18;7.10;;;6.40;;
35757;SDS011;21879;50.110;18.900;2023-07-09T21:45:55;8.60;;;7.60;;
35757;SDS011;21879;50.110;18.900;2023-07-09T21:56:23;8.20;;;7.40;;
35757;SDS011;21879;50.110;18.900;2023-07-09T22:06:51;10.90;;;8.10;;
35757;SDS011;21879;50.110;18.900;2023-07-09T22:17:20;9.70;;;8.40;;
35757;SDS011;21879;50.110;18.900;2023-07-09T22:27:52;10.40;;;8.20;;
35757;SDS011;21879;50.110;18.900;2023-07-09T22:38:21;9.90;;;8.60;;
35757;SDS011;21879;50.110;18.900;2023-07-09T22:48:50;10.10;;;8.50;;
35757;SDS011;21879;50.110;18.900;2023-07-09T22:59:18;10.80;;;9.10;;
35757;SDS011;21879;50.110;18.900;2023-07-09T23:09:46;9.30;;;8.20;;
35757;SDS011;21879;50.110;18.900;2023-07-09T23:20:14;8.60;;;7.10;;
35757;SDS011;21879;50.110;18.900;2023-07-09T23:30:43;9.20;;;8.20;;
35757;SDS011;21879;50.110;18.900;2023-07-09T23:41:17;10.80;;;9.20;;
35757;SDS011;21879;50.110;18.900;2023-07-09T23:51:48;9.50;;;8.10;;
